Terminal Aerodrome Forecast
Issued by NWS

Home | Current Version | Previous Version | Text Only | Print | Product List | Glossary On
Versions: 1 2 3 4 5 6 7 8 9 10 11 12 13 14 15 16 17 18 19 20 21 22 23
000
FTUS44 KMOB 131700
TAFBFM
TAF
KBFM 131722Z 1318/1418 14009KT P6SM VCTS SCT030CB SCT070
     FM140200 17003KT P6SM SCT070 SCT250
     FM141200 15003KT P6SM VCSH SCT030 SCT100
     FM141600 16008KT P6SM VCTS SCT030CB=

USA.gov is the U.S. government's official web portal to all federal, state and local government web resources and services.